Time,TemperatureF,DewpointF,PressureIn,WindDirection,WindDirectionDegrees,WindSpeedMPH,WindSpeedGustMPH,Humidity,HourlyPrecipIn,Conditions,Clouds,dailyrainin,SoftwareType,DateUTC
2013-01-19 00:00:00,39.2,13.2,30.28,SSE,162,0.0,0.0,34,0.00,,---,0.00,VWS V14.01,2013-01-19 08:00:00,
2013-01-19 00:05:00,39.3,13.3,30.28,SSE,150,0.0,0.0,34,0.00,,---,0.00,VWS V14.01,2013-01-19 08:05:00,
2013-01-19 00:10:00,39.1,13.1,30.28,SSE,158,0.0,0.0,34,0.00,,---,0.00,VWS V14.01,2013-01-19 08:10:00,
2013-01-19 00:15:00,38.7,13.4,30.28,SSE,167,0.0,0.0,35,0.00,,---,0.00,VWS V14.01,2013-01-19 08:15:00,
2013-01-19 00:20:00,37.7,13.2,30.28,SSE,167,0.0,0.0,36,0.00,,---,0.00,VWS V14.01,2013-01-19 08:20:00,
2013-01-19 00:25:00,37.5,13.6,30.28,SSE,150,0.0,0.0,37,0.00,,---,0.00,VWS V14.01,2013-01-19 08:25:00,
2013-01-19 00:30:00,37.0,13.2,30.28,SSE,156,0.0,0.0,37,0.00,,---,0.00,VWS V14.01,2013-01-19 08:30:00,
2013-01-19 00:36:00,37.1,13.2,30.28,SSE,157,0.0,0.0,37,0.00,,---,0.00,VWS V14.01,2013-01-19 08:36:00,
2013-01-19 00:41:00,37.5,13.6,30.28,SSE,166,0.0,0.0,37,0.00,,---,0.00,VWS V14.01,2013-01-19 08:41:00,
2013-01-19 00:46:00,37.0,13.2,30.28,SSE,163,0.0,0.0,37,0.00,,---,0.00,VWS V14.01,2013-01-19 08:46:00,
2013-01-19 00:51:00,36.8,13.6,30.28,SSE,163,0.0,0.0,38,0.00,,---,0.00,VWS V14.01,2013-01-19 08:51:00,
2013-01-19 00:56:00,36.5,13.3,30.28,SSE,163,0.0,0.0,38,0.00,,---,0.00,VWS V14.01,2013-01-19 08:56:00,
2013-01-19 01:01:00,36.1,13.6,30.28,South,169,0.0,0.0,39,0.00,,---,0.00,VWS V14.01,2013-01-19 09:01:00,
2013-01-19 01:06:00,35.6,13.7,30.28,South,186,0.0,0.0,40,0.00,,---,0.00,VWS V14.01,2013-01-19 09:06:00,
2013-01-19 01:11:00,35.8,13.3,30.28,SSE,155,0.0,0.0,39,0.00,,---,0.00,VWS V14.01,2013-01-19 09:11:00,
2013-01-19 01:17:00,36.0,13.5,30.28,SE,146,0.0,0.0,39,0.00,,---,0.00,VWS V14.01,2013-01-19 09:17:00,
2013-01-19 01:22:00,35.8,13.3,30.29,SSE,160,0.0,0.0,39,0.00,,---,0.00,VWS V14.01,2013-01-19 09:22:00,
2013-01-19 01:27:00,35.9,13.4,30.28,SSE,159,0.0,0.0,39,0.00,,---,0.00,VWS V14.01,2013-01-19 09:27:00,
2013-01-19 01:32:00,35.9,13.4,30.29,SSE,167,0.0,0.0,39,0.00,,---,0.00,VWS V14.01,2013-01-19 09:32:00,
2013-01-19 01:37:00,35.4,12.9,30.29,South,169,0.0,0.0,39,0.00,,---,0.00,VWS V14.01,2013-01-19 09:37:00,
2013-01-19 01:42:00,35.1,13.2,30.29,South,171,0.0,0.0,40,0.00,,---,0.00,VWS V14.01,2013-01-19 09:42:00,
2013-01-19 01:47:00,34.9,13.6,30.29,South,181,0.0,0.0,41,0.00,,---,0.00,VWS V14.01,2013-01-19 09:47:00,
2013-01-19 01:52:00,35.0,13.1,30.29,SSE,158,0.0,0.0,40,0.00,,---,0.00,VWS V14.01,2013-01-19 09:52:00,
2013-01-19 01:57:00,35.6,13.1,30.28,South,190,0.0,0.0,39,0.00,,---,0.00,VWS V14.01,2013-01-19 09:57:00,
2013-01-19 02:02:00,35.3,13.4,30.29,South,187,0.0,0.0,40,0.00,,---,0.00,VWS V14.01,2013-01-19 10:02:00,
2013-01-19 02:07:00,34.7,13.4,30.28,SSE,162,0.0,0.0,41,0.00,,---,0.00,VWS V14.01,2013-01-19 10:07:00,
2013-01-19 02:13:00,34.5,13.2,30.29,South,170,0.0,0.0,41,0.00,,---,0.00,VWS V14.01,2013-01-19 10:13:00,
2013-01-19 02:18:00,34.4,13.1,30.29,South,170,0.0,0.0,41,0.00,,---,0.00,VWS V14.01,2013-01-19 10:18:00,
2013-01-19 02:23:00,34.5,12.7,30.29,SSE,166,0.0,0.0,40,0.00,,---,0.00,VWS V14.01,2013-01-19 10:23:00,
2013-01-19 02:28:00,34.5,13.2,30.29,SSE,167,0.0,0.0,41,0.00,,---,0.00,VWS V14.01,2013-01-19 10:28:00,
2013-01-19 02:33:00,34.0,13.3,30.29,SSE,168,0.0,0.0,42,0.00,,---,0.00,VWS V14.01,2013-01-19 10:33:00,
2013-01-19 02:38:00,34.3,13.1,30.29,SSE,165,0.0,0.0,41,0.00,,---,0.00,VWS V14.01,2013-01-19 10:38:00,
2013-01-19 02:43:00,34.5,13.2,30.29,SSE,163,0.0,0.0,41,0.00,,---,0.00,VWS V14.01,2013-01-19 10:43:00,
2013-01-19 02:48:00,34.3,13.1,30.29,SE,139,0.0,0.0,41,0.00,,---,0.00,VWS V14.01,2013-01-19 10:48:00,
2013-01-19 02:53:00,33.7,13.1,30.29,SSE,159,0.0,0.0,42,0.00,,---,0.00,VWS V14.01,2013-01-19 10:53:00,
2013-01-19 02:58:00,33.5,12.3,30.29,SSE,152,0.0,0.0,41,0.00,,---,0.00,VWS V14.01,2013-01-19 10:58:00,
2013-01-19 03:03:00,33.8,13.1,30.29,SSE,152,0.0,0.0,42,0.00,,---,0.00,VWS V14.01,2013-01-19 11:03:00,
2013-01-19 03:08:00,33.5,12.9,30.29,SSE,153,0.0,0.0,42,0.00,,---,0.00,VWS V14.01,2013-01-19 11:08:00,
2013-01-19 03:13:00,33.2,12.6,30.29,SSE,153,0.0,0.0,42,0.00,,---,0.00,VWS V14.01,2013-01-19 11:13:00,
2013-01-19 04:48:00,27.9,12.6,30.30,North,349,0.0,0.0,52,0.00,,---,0.00,VWS V14.01,2013-01-19 12:48:00,
2013-01-19 04:49:00,28.0,13.1,30.30,North,349,0.0,0.0,53,0.00,,---,0.00,VWS V14.01,2013-01-19 12:49:00,
2013-01-19 04:50:00,27.9,13.0,30.30,NNW,348,0.0,0.0,53,0.00,,---,0.00,VWS V14.01,2013-01-19 12:50:00,
2013-01-19 04:53:00,28.3,13.4,30.30,NNW,348,0.0,0.0,53,0.00,,---,0.00,VWS V14.01,2013-01-19 12:53:00,
2013-01-19 04:58:00,28.3,12.9,30.30,South,176,0.0,0.0,52,0.00,,---,0.00,VWS V14.01,2013-01-19 12:58:00,
2013-01-19 05:03:00,28.0,12.7,30.30,SSW,193,0.0,0.0,52,0.00,,---,0.00,VWS V14.01,2013-01-19 13:03:00,
2013-01-19 05:08:00,28.0,13.1,30.30,SSE,163,0.0,0.0,53,0.00,,---,0.00,VWS V14.01,2013-01-19 13:08:00,
2013-01-19 05:13:00,28.1,12.8,30.30,SSE,163,0.0,0.0,52,0.00,,---,0.00,VWS V14.01,2013-01-19 13:13:00,
2013-01-19 05:18:00,28.6,12.8,30.30,SSE,165,0.0,0.0,51,0.00,,---,0.00,VWS V14.01,2013-01-19 13:18:00,
2013-01-19 05:23:00,28.8,13.0,30.31,South,169,0.0,0.0,51,0.00,,---,0.00,VWS V14.01,2013-01-19 13:23:00,
2013-01-19 05:28:00,28.6,12.8,30.31,SSE,163,0.0,0.0,51,0.00,,---,0.00,VWS V14.01,2013-01-19 13:28:00,
2013-01-19 05:34:00,28.9,12.6,30.31,SSE,153,0.0,0.0,50,0.00,,---,0.00,VWS V14.01,2013-01-19 13:34:00,
2013-01-19 05:39:00,29.2,12.4,30.31,SSE,153,0.0,0.0,49,0.00,,---,0.00,VWS V14.01,2013-01-19 13:39:00,
2013-01-19 05:44:00,28.8,13.0,30.31,SSE,167,0.0,0.0,51,0.00,,---,0.00,VWS V14.01,2013-01-19 13:44:00,
2013-01-19 05:49:00,29.5,12.2,30.31,SSW,209,0.0,0.0,48,0.00,,---,0.00,VWS V14.01,2013-01-19 13:49:00,
2013-01-19 05:54:00,29.0,12.2,30.31,SSW,203,0.0,0.0,49,0.00,,---,0.00,VWS V14.01,2013-01-19 13:54:00,
2013-01-19 05:59:00,29.0,12.2,30.31,SW,216,0.0,0.0,49,0.00,,---,0.00,VWS V14.01,2013-01-19 13:59:00,
2013-01-19 06:04:00,29.7,11.9,30.31,SW,218,0.0,0.0,47,0.00,,---,0.00,VWS V14.01,2013-01-19 14:04:00,
2013-01-19 06:09:00,29.8,12.0,30.32,SSW,210,0.0,0.0,47,0.00,,---,0.00,VWS V14.01,2013-01-19 14:09:00,
2013-01-19 06:14:00,30.7,11.9,30.32,SSW,210,0.0,0.0,45,0.00,,---,0.00,VWS V14.01,2013-01-19 14:14:00,
2013-01-19 06:19:00,31.5,11.6,30.32,SSW,210,0.0,0.0,43,0.00,,---,0.00,VWS V14.01,2013-01-19 14:19:00,
2013-01-19 06:24:00,31.9,11.4,30.32,South,184,0.0,0.0,42,0.00,,---,0.00,VWS V14.01,2013-01-19 14:24:00,
2013-01-19 06:29:00,32.4,11.3,30.32,SSE,167,0.0,0.0,41,0.00,,---,0.00,VWS V14.01,2013-01-19 14:29:00,
2013-01-19 06:35:00,32.7,11.6,30.32,SSE,167,0.0,0.0,41,0.00,,---,0.00,VWS V14.01,2013-01-19 14:35:00,
2013-01-19 06:40:00,33.2,11.5,30.32,SSE,167,0.0,0.0,40,0.00,,---,0.00,VWS V14.01,2013-01-19 14:40:00,
2013-01-19 06:45:00,33.3,11.6,30.32,SE,146,0.0,0.0,40,0.00,,---,0.00,VWS V14.01,2013-01-19 14:45:00,
2013-01-19 06:50:00,33.1,12.0,30.32,SE,146,0.0,0.0,41,0.00,,---,0.00,VWS V14.01,2013-01-19 14:50:00,
2013-01-19 06:55:00,31.5,11.6,30.33,South,169,0.0,0.0,43,0.00,,---,0.00,VWS V14.01,2013-01-19 14:55:00,
2013-01-19 07:00:00,31.1,11.8,30.33,SSW,194,0.0,0.0,44,0.00,,---,0.00,VWS V14.01,2013-01-19 15:00:00,
2013-01-19 07:05:00,30.7,11.9,30.33,SSW,194,0.0,0.0,45,0.00,,---,0.00,VWS V14.01,2013-01-19 15:05:00,
2013-01-19 07:10:00,30.9,12.6,30.34,SSW,194,0.0,0.0,46,0.00,,---,0.00,VWS V14.01,2013-01-19 15:10:00,
2013-01-19 07:15:00,31.4,12.5,30.33,SE,146,0.0,0.0,45,0.00,,---,0.00,VWS V14.01,2013-01-19 15:15:00,
2013-01-19 07:20:00,32.9,12.9,30.34,SE,146,0.0,0.0,43,0.00,,---,0.00,VWS V14.01,2013-01-19 15:20:00,
2013-01-19 07:25:00,33.9,12.1,30.34,SE,146,0.0,0.0,40,0.00,,---,0.00,VWS V14.01,2013-01-19 15:25:00,
2013-01-19 07:30:00,34.4,13.1,30.34,SE,146,0.0,0.0,41,0.00,,---,0.00,VWS V14.01,2013-01-19 15:30:00,
2013-01-19 07:35:00,35.5,13.0,30.34,SE,146,0.0,0.0,39,0.00,,---,0.00,VWS V14.01,2013-01-19 15:35:00,
2013-01-19 07:40:00,36.3,13.1,30.34,SE,146,0.0,0.0,38,0.00,,---,0.00,VWS V14.01,2013-01-19 15:40:00,
2013-01-19 07:45:00,37.9,13.4,30.35,SE,146,0.0,0.0,36,0.00,,---,0.00,VWS V14.01,2013-01-19 15:45:00,
2013-01-19 07:50:00,38.5,12.6,30.35,SE,146,0.0,0.0,34,0.00,,---,0.00,VWS V14.01,2013-01-19 15:50:00,
2013-01-19 07:55:00,37.5,12.4,30.35,SE,146,0.0,0.0,35,0.00,,---,0.00,VWS V14.01,2013-01-19 15:55:00,
2013-01-19 08:00:00,38.5,15.1,30.35,SE,146,0.0,0.0,38,0.00,,---,0.00,VWS V14.01,2013-01-19 16:00:00,
2013-01-19 08:05:00,37.0,14.4,30.35,SE,146,0.0,0.0,39,0.00,,---,0.00,VWS V14.01,2013-01-19 16:05:00,
2013-01-19 08:11:00,35.3,14.5,30.35,SE,146,0.0,0.0,42,0.00,,---,0.00,VWS V14.01,2013-01-19 16:11:00,
2013-01-19 08:16:00,34.6,14.4,30.35,SE,146,0.0,0.0,43,0.00,,---,0.00,VWS V14.01,2013-01-19 16:16:00,
2013-01-19 08:21:00,34.4,13.7,30.35,NE,39,0.0,0.0,42,0.00,,---,0.00,VWS V14.01,2013-01-19 16:21:00,
2013-01-19 08:27:00,34.7,14.0,30.35,NE,34,0.0,0.0,42,0.00,,---,0.00,VWS V14.01,2013-01-19 16:27:00,
2013-01-19 08:32:00,35.3,14.0,30.36,NNE,33,0.0,0.0,41,0.00,,---,0.00,VWS V14.01,2013-01-19 16:32:00,
2013-01-19 08:37:00,36.0,14.0,30.36,NNE,32,0.0,0.0,40,0.00,,---,0.00,VWS V14.01,2013-01-19 16:37:00,
2013-01-19 08:42:00,36.7,12.9,30.36,NNE,33,0.0,0.0,37,0.00,,---,0.00,VWS V14.01,2013-01-19 16:42:00,
2013-01-19 08:47:00,37.7,13.2,30.36,NE,34,0.0,0.0,36,0.00,,---,0.00,VWS V14.01,2013-01-19 16:47:00,
2013-01-19 08:52:00,38.3,13.1,30.37,NE,36,0.0,0.0,35,0.00,,---,0.00,VWS V14.01,2013-01-19 16:52:00,
2013-01-19 08:57:00,38.4,13.1,30.37,NNE,26,0.0,0.0,35,0.00,,---,0.00,VWS V14.01,2013-01-19 16:57:00,
2013-01-19 09:02:00,38.5,12.6,30.37,NNE,18,0.0,0.0,34,0.00,,---,0.00,VWS V14.01,2013-01-19 17:02:00,
2013-01-19 09:07:00,38.8,12.9,30.37,NE,51,0.0,0.0,34,0.00,,---,0.00,VWS V14.01,2013-01-19 17:07:00,
2013-01-19 09:14:00,39.5,12.8,30.38,NE,51,0.0,0.0,33,0.00,,---,0.00,VWS V14.01,2013-01-19 17:14:00,
2013-01-19 09:19:00,40.2,12.7,30.38,West,280,0.0,0.0,32,0.00,,---,0.00,VWS V14.01,2013-01-19 17:19:00,
2013-01-19 09:25:00,40.7,12.4,30.38,West,280,0.0,0.0,31,0.00,,---,0.00,VWS V14.01,2013-01-19 17:25:00,
2013-01-19 09:30:00,41.3,12.2,30.38,West,280,0.0,0.0,30,0.00,,---,0.00,VWS V14.01,2013-01-19 17:30:00,
2013-01-19 09:35:00,41.8,11.9,30.38,WNW,295,0.0,0.0,29,0.00,,---,0.00,VWS V14.01,2013-01-19 17:35:00,
2013-01-19 09:40:00,42.4,11.6,30.38,WNW,293,0.0,0.0,28,0.00,,---,0.00,VWS V14.01,2013-01-19 17:40:00,
2013-01-19 09:47:00,43.2,11.5,30.38,West,259,0.0,0.0,27,0.00,,---,0.00,VWS V14.01,2013-01-19 17:47:00,
2013-01-19 09:52:00,44.1,11.4,30.38,West,259,0.0,0.0,26,0.00,,---,0.00,VWS V14.01,2013-01-19 17:52:00,
2013-01-19 09:57:00,44.7,11.9,30.38,NNE,13,0.0,0.0,26,0.00,,---,0.00,VWS V14.01,2013-01-19 17:57:00,
2013-01-19 10:03:00,45.3,11.6,30.38,NNE,33,0.0,0.0,25,0.00,,---,0.00,VWS V14.01,2013-01-19 18:03:00,
2013-01-19 10:09:00,46.0,11.2,30.38,NNE,12,0.0,0.0,24,0.00,,---,0.00,VWS V14.01,2013-01-19 18:09:00,
2013-01-19 10:18:00,46.7,11.8,30.38,ENE,61,0.0,0.0,24,0.00,,---,0.00,VWS V14.01,2013-01-19 18:18:00,
2013-01-19 10:24:00,47.7,10.7,30.37,ENE,65,4.0,4.0,22,0.00,,---,0.00,VWS V14.01,2013-01-19 18:24:00,
2013-01-19 10:30:00,47.5,10.6,30.37,NNW,348,1.0,4.0,22,0.00,,---,0.00,VWS V14.01,2013-01-19 18:30:00,
2013-01-19 10:35:00,47.7,10.7,30.36,NW,312,1.0,4.0,22,0.00,,---,0.00,VWS V14.01,2013-01-19 18:35:00,
2013-01-19 10:41:00,48.1,11.1,30.36,NNE,25,2.0,4.0,22,0.00,,---,0.00,VWS V14.01,2013-01-19 18:41:00,
2013-01-19 10:46:00,48.3,10.2,30.36,East,83,0.0,7.0,21,0.00,,---,0.00,VWS V14.01,2013-01-19 18:46:00,
2013-01-19 10:54:00,48.5,10.4,30.35,ENE,72,3.0,7.0,21,0.00,,---,0.00,VWS V14.01,2013-01-19 18:54:00,
2013-01-19 10:59:00,48.5,10.4,30.35,ENE,66,3.0,7.0,21,0.00,,---,0.00,VWS V14.01,2013-01-19 18:59:00,
2013-01-19 11:06:00,48.9,9.6,30.34,NE,50,1.0,7.0,20,0.00,,---,0.00,VWS V14.01,2013-01-19 19:06:00,
2013-01-19 11:12:00,49.3,9.9,30.34,NNE,15,0.0,7.0,20,0.00,,---,0.00,VWS V14.01,2013-01-19 19:12:00,
2013-01-19 11:17:00,49.4,10.0,30.34,NE,35,3.0,7.0,20,0.00,,---,0.00,VWS V14.01,2013-01-19 19:17:00,
2013-01-19 11:22:00,49.6,10.2,30.34,NNE,24,0.0,7.0,20,0.00,,---,0.00,VWS V14.01,2013-01-19 19:22:00,
2013-01-19 11:28:00,50.0,9.4,30.33,East,79,2.0,7.0,19,0.00,,---,0.00,VWS V14.01,2013-01-19 19:28:00,
2013-01-19 11:33:00,50.6,11.0,30.33,NW,308,0.0,7.0,20,0.00,,---,0.00,VWS V14.01,2013-01-19 19:33:00,
2013-01-19 11:39:00,50.9,10.1,30.32,NNE,33,7.0,7.0,19,0.00,,---,0.00,VWS V14.01,2013-01-19 19:39:00,
2013-01-19 11:44:00,51.3,10.5,30.32,NNE,26,3.0,8.0,19,0.00,,---,0.00,VWS V14.01,2013-01-19 19:44:00,
2013-01-19 11:49:00,51.5,10.6,30.32,NE,34,6.0,8.0,19,0.00,,---,0.00,VWS V14.01,2013-01-19 19:49:00,
2013-01-19 11:57:00,51.8,10.9,30.31,NNE,26,0.0,8.0,19,0.00,,---,0.00,VWS V14.01,2013-01-19 19:57:00,
2013-01-19 12:02:00,52.2,10.0,30.31,NE,48,7.0,7.0,18,0.00,,---,0.00,VWS V14.01,2013-01-19 20:02:00,
2013-01-19 12:09:00,52.6,11.5,30.30,NE,35,6.0,8.0,19,0.00,,---,0.00,VWS V14.01,2013-01-19 20:09:00,
2013-01-19 12:15:00,53.3,10.9,30.30,NNE,26,3.0,8.0,18,0.00,,---,0.00,VWS V14.01,2013-01-19 20:15:00,
2013-01-19 12:20:00,53.5,11.1,30.30,ENE,60,0.0,8.0,18,0.00,,---,0.00,VWS V14.01,2013-01-19 20:20:00,
2013-01-19 12:25:00,54.0,11.5,30.29,NNE,23,5.0,10.0,18,0.00,,---,0.00,VWS V14.01,2013-01-19 20:25:00,
2013-01-19 12:30:00,54.5,11.9,30.29,NW,321,1.0,10.0,18,0.00,,---,0.00,VWS V14.01,2013-01-19 20:30:00,
2013-01-19 12:36:00,54.8,12.1,30.29,WNW,302,0.0,10.0,18,0.00,,---,0.00,VWS V14.01,2013-01-19 20:36:00,
2013-01-19 12:42:00,55.3,12.5,30.28,NNE,15,4.0,10.0,18,0.00,,---,0.00,VWS V14.01,2013-01-19 20:42:00,
2013-01-19 12:47:00,55.7,11.6,30.28,North,353,3.0,10.0,17,0.00,,---,0.00,VWS V14.01,2013-01-19 20:47:00,
2013-01-19 12:53:00,56.1,13.2,30.28,NE,41,3.0,10.0,18,0.00,,---,0.00,VWS V14.01,2013-01-19 20:53:00,
2013-01-19 12:59:00,56.5,12.2,30.28,North,350,3.0,10.0,17,0.00,,---,0.00,VWS V14.01,2013-01-19 20:59:00,
2013-01-19 13:04:00,56.7,12.4,30.27,NE,52,6.0,7.0,17,0.00,,---,0.00,VWS V14.01,2013-01-19 21:04:00,
2013-01-19 13:11:00,57.1,12.7,30.27,NE,40,0.0,7.0,17,0.00,,---,0.00,VWS V14.01,2013-01-19 21:11:00,
2013-01-19 13:16:00,57.5,13.1,30.27,NNE,33,6.0,7.0,17,0.00,,---,0.00,VWS V14.01,2013-01-19 21:16:00,
2013-01-19 13:23:00,58.1,12.2,30.27,NE,42,1.0,7.0,16,0.00,,---,0.00,VWS V14.01,2013-01-19 21:23:00,
2013-01-19 13:28:00,59.0,12.9,30.26,ENE,68,2.0,7.0,16,0.00,,---,0.00,VWS V14.01,2013-01-19 21:28:00,
2013-01-19 13:33:00,59.0,12.9,30.26,NNE,33,5.0,7.0,16,0.00,,---,0.00,VWS V14.01,2013-01-19 21:33:00,
2013-01-19 13:39:00,58.9,11.4,30.26,NE,56,3.0,8.0,15,0.00,,---,0.00,VWS V14.01,2013-01-19 21:39:00,
2013-01-19 13:44:00,58.9,12.8,30.26,NE,42,0.0,8.0,16,0.00,,---,0.00,VWS V14.01,2013-01-19 21:44:00,
2013-01-19 13:50:00,59.3,11.7,30.25,NNE,23,5.0,8.0,15,0.00,,---,0.00,VWS V14.01,2013-01-19 21:50:00,
2013-01-19 13:55:00,59.6,11.9,30.25,NNE,33,5.0,8.0,15,0.00,,---,0.00,VWS V14.01,2013-01-19 21:55:00,
2013-01-19 14:03:00,60.0,12.2,30.25,NE,40,5.0,8.0,15,0.00,,---,0.00,VWS V14.01,2013-01-19 22:03:00,
2013-01-19 14:11:00,60.9,11.4,30.24,NE,46,0.0,8.0,14,0.00,,---,0.00,VWS V14.01,2013-01-19 22:11:00,
2013-01-19 14:16:00,61.4,11.8,30.24,NE,48,0.0,8.0,14,0.00,,---,0.00,VWS V14.01,2013-01-19 22:16:00,
2013-01-19 14:22:00,62.0,10.6,30.24,NE,50,9.0,12.0,13,0.00,,---,0.00,VWS V14.01,2013-01-19 22:22:00,
2013-01-19 14:27:00,62.8,11.2,30.24,ENE,62,9.0,12.0,13,0.00,,---,0.00,VWS V14.01,2013-01-19 22:27:00,
2013-01-19 14:33:00,62.8,9.5,30.24,NNE,28,8.0,12.0,12,0.00,,---,0.00,VWS V14.01,2013-01-19 22:33:00,
2013-01-19 14:38:00,62.8,9.5,30.23,NNE,23,11.0,15.0,12,0.00,,---,0.00,VWS V14.01,2013-01-19 22:38:00,
2013-01-19 14:43:00,63.1,9.7,30.23,NE,40,7.0,15.0,12,0.00,,---,0.00,VWS V14.01,2013-01-19 22:43:00,
2013-01-19 14:49:00,63.0,9.6,30.23,North,359,6.0,15.0,12,0.00,,---,0.00,VWS V14.01,2013-01-19 22:49:00,
2013-01-19 14:54:00,63.3,9.9,30.23,NE,49,8.0,15.0,12,0.00,,---,0.00,VWS V14.01,2013-01-19 22:54:00,
2013-01-19 14:59:00,63.4,9.9,30.23,NE,45,8.0,15.0,12,0.00,,---,0.00,VWS V14.01,2013-01-19 22:59:00,
2013-01-19 15:04:00,63.3,9.9,30.23,NE,48,8.0,12.0,12,0.00,,---,0.00,VWS V14.01,2013-01-19 23:04:00,
2013-01-19 15:10:00,63.3,9.9,30.22,NE,47,7.0,12.0,12,0.00,,---,0.00,VWS V14.01,2013-01-19 23:10:00,
2013-01-19 15:16:00,63.3,9.9,30.22,ENE,76,7.0,13.0,12,0.00,,---,0.00,VWS V14.01,2013-01-19 23:16:00,
2013-01-19 15:21:00,63.5,8.1,30.22,NE,34,8.0,13.0,11,0.00,,---,0.00,VWS V14.01,2013-01-19 23:21:00,
2013-01-19 15:28:00,63.5,8.1,30.22,NNE,27,5.0,13.0,11,0.00,,---,0.00,VWS V14.01,2013-01-19 23:28:00,
2013-01-19 15:33:00,63.3,9.9,30.22,ENE,69,3.0,14.0,12,0.00,,---,0.00,VWS V14.01,2013-01-19 23:33:00,
2013-01-19 15:38:00,63.3,9.9,30.22,NE,39,8.0,14.0,12,0.00,,---,0.00,VWS V14.01,2013-01-19 23:38:00,
2013-01-19 15:43:00,63.4,9.9,30.22,NE,41,5.0,14.0,12,0.00,,---,0.00,VWS V14.01,2013-01-19 23:43:00,
2013-01-19 15:49:00,63.3,9.9,30.22,NE,43,10.0,14.0,12,0.00,,---,0.00,VWS V14.01,2013-01-19 23:49:00,
2013-01-19 15:54:00,63.1,9.7,30.22,ENE,75,4.0,14.0,12,0.00,,---,0.00,VWS V14.01,2013-01-19 23:54:00,
2013-01-19 15:59:00,63.2,9.8,30.22,NE,39,8.0,14.0,12,0.00,,---,0.00,VWS V14.01,2013-01-19 23:59:00,
2013-01-19 16:05:00,62.9,9.5,30.22,NE,56,7.0,9.0,12,0.00,,---,0.00,VWS V14.01,2013-01-20 00:05:00,
2013-01-19 16:10:00,62.8,9.5,30.22,NE,34,9.0,10.0,12,0.00,,---,0.00,VWS V14.01,2013-01-20 00:10:00,
2013-01-19 16:15:00,62.7,9.4,30.22,NE,37,8.0,10.0,12,0.00,,---,0.00,VWS V14.01,2013-01-20 00:15:00,
2013-01-19 16:20:00,62.6,9.3,30.22,NE,51,5.0,10.0,12,0.00,,---,0.00,VWS V14.01,2013-01-20 00:20:00,
2013-01-19 16:25:00,62.4,9.1,30.22,NE,47,5.0,10.0,12,0.00,,---,0.00,VWS V14.01,2013-01-20 00:25:00,
2013-01-19 16:31:00,62.3,10.9,30.22,NE,44,4.0,10.0,13,0.00,,---,0.00,VWS V14.01,2013-01-20 00:31:00,
2013-01-19 16:36:00,62.2,10.8,30.22,NE,40,5.0,10.0,13,0.00,,---,0.00,VWS V14.01,2013-01-20 00:36:00,
2013-01-19 16:43:00,61.8,10.5,30.22,North,5,2.0,10.0,13,0.00,,---,0.00,VWS V14.01,2013-01-20 00:43:00,
2013-01-19 16:49:00,61.2,11.6,30.22,NE,42,4.0,10.0,14,0.00,,---,0.00,VWS V14.01,2013-01-20 00:49:00,
2013-01-19 16:55:00,60.3,10.9,30.22,NE,41,3.0,10.0,14,0.00,,---,0.00,VWS V14.01,2013-01-20 00:55:00,
2013-01-19 17:00:00,59.7,10.4,30.22,NNE,32,0.0,1.0,14,0.00,,---,0.00,VWS V14.01,2013-01-20 01:00:00,
2013-01-19 17:06:00,59.3,11.7,30.23,NNE,25,0.0,1.0,15,0.00,,---,0.00,VWS V14.01,2013-01-20 01:06:00,
2013-01-19 17:11:00,58.9,11.4,30.22,NNE,31,0.0,1.0,15,0.00,,---,0.00,VWS V14.01,2013-01-20 01:11:00,
2013-01-19 17:19:00,58.4,10.9,30.22,NE,35,0.0,1.0,15,0.00,,---,0.00,VWS V14.01,2013-01-20 01:19:00,
2013-01-19 17:24:00,58.1,10.7,30.23,NE,41,0.0,1.0,15,0.00,,---,0.00,VWS V14.01,2013-01-20 01:24:00,
2013-01-19 17:29:00,57.7,10.4,30.23,NE,44,0.0,1.0,15,0.00,,---,0.00,VWS V14.01,2013-01-20 01:29:00,
2013-01-19 17:34:00,57.4,11.6,30.23,East,89,0.0,1.0,16,0.00,,---,0.00,VWS V14.01,2013-01-20 01:34:00,
2013-01-19 17:40:00,56.9,11.2,30.23,East,94,0.0,1.0,16,0.00,,---,0.00,VWS V14.01,2013-01-20 01:40:00,
2013-01-19 17:45:00,56.3,12.1,30.23,East,95,0.0,1.0,17,0.00,,---,0.00,VWS V14.01,2013-01-20 01:45:00,
2013-01-19 17:51:00,54.9,12.2,30.23,South,179,0.0,1.0,18,0.00,,---,0.00,VWS V14.01,2013-01-20 01:51:00,
2013-01-19 17:57:00,53.7,12.4,30.24,South,181,0.0,1.0,19,0.00,,---,0.00,VWS V14.01,2013-01-20 01:57:00,
2013-01-19 18:03:00,52.8,12.9,30.24,South,176,0.0,0.0,20,0.00,,---,0.00,VWS V14.01,2013-01-20 02:03:00,
2013-01-19 18:08:00,52.7,12.8,30.24,South,183,0.0,0.0,20,0.00,,---,0.00,VWS V14.01,2013-01-20 02:08:00,
2013-01-19 18:13:00,51.8,13.1,30.24,South,176,0.0,0.0,21,0.00,,---,0.00,VWS V14.01,2013-01-20 02:13:00,
2013-01-19 18:18:00,51.2,13.7,30.24,South,169,0.0,0.0,22,0.00,,---,0.00,VWS V14.01,2013-01-20 02:18:00,
2013-01-19 18:23:00,51.1,13.6,30.24,South,183,0.0,0.0,22,0.00,,---,0.00,VWS V14.01,2013-01-20 02:23:00,
2013-01-19 18:29:00,50.6,14.2,30.24,SSW,193,0.0,0.0,23,0.00,,---,0.00,VWS V14.01,2013-01-20 02:29:00,
2013-01-19 18:34:00,50.4,14.0,30.25,South,172,0.0,0.0,23,0.00,,---,0.00,VWS V14.01,2013-01-20 02:34:00,
2013-01-19 18:40:00,49.7,13.4,30.25,SSE,165,0.0,0.0,23,0.00,,---,0.00,VWS V14.01,2013-01-20 02:40:00,
2013-01-19 18:45:00,49.5,13.2,30.25,SSE,167,0.0,0.0,23,0.00,,---,0.00,VWS V14.01,2013-01-20 02:45:00,
2013-01-19 18:50:00,49.0,13.8,30.25,South,179,0.0,0.0,24,0.00,,---,0.00,VWS V14.01,2013-01-20 02:50:00,
2013-01-19 18:57:00,48.6,13.5,30.25,South,188,0.0,0.0,24,0.00,,---,0.00,VWS V14.01,2013-01-20 02:57:00,
2013-01-19 19:02:00,48.0,13.9,30.25,SSW,193,0.0,0.0,25,0.00,,---,0.00,VWS V14.01,2013-01-20 03:02:00,
2013-01-19 19:08:00,47.6,13.5,30.25,South,187,0.0,0.0,25,0.00,,---,0.00,VWS V14.01,2013-01-20 03:08:00,
2013-01-19 19:13:00,47.3,13.3,30.25,SSE,153,0.0,0.0,25,0.00,,---,0.00,VWS V14.01,2013-01-20 03:13:00,
2013-01-19 19:20:00,47.7,12.7,30.26,SE,134,0.0,0.0,24,0.00,,---,0.00,VWS V14.01,2013-01-20 03:20:00,
2013-01-19 19:25:00,48.2,13.1,30.26,SSE,149,0.0,0.0,24,0.00,,---,0.00,VWS V14.01,2013-01-20 03:25:00,
2013-01-19 19:30:00,48.4,12.3,30.26,SSE,160,0.0,0.0,23,0.00,,---,0.00,VWS V14.01,2013-01-20 03:30:00,
2013-01-19 19:36:00,48.1,13.0,30.26,South,186,0.0,0.0,24,0.00,,---,0.00,VWS V14.01,2013-01-20 03:36:00,
2013-01-19 19:41:00,47.9,11.9,30.26,South,179,0.0,0.0,23,0.00,,---,0.00,VWS V14.01,2013-01-20 03:41:00,
2013-01-19 19:46:00,48.1,13.0,30.26,SSE,163,0.0,0.0,24,0.00,,---,0.00,VWS V14.01,2013-01-20 03:46:00,
2013-01-19 19:52:00,47.9,12.9,30.26,SSE,165,0.0,0.0,24,0.00,,---,0.00,VWS V14.01,2013-01-20 03:52:00,
2013-01-19 19:58:00,47.7,12.7,30.27,SSW,208,2.0,2.0,24,0.00,,---,0.00,VWS V14.01,2013-01-20 03:58:00,
2013-01-19 20:03:00,46.6,12.7,30.27,WSW,240,0.0,1.0,25,0.00,,---,0.00,VWS V14.01,2013-01-20 04:03:00,
2013-01-19 20:08:00,45.1,12.3,30.27,West,277,0.0,1.0,26,0.00,,---,0.00,VWS V14.01,2013-01-20 04:08:00,
2013-01-19 20:13:00,44.7,13.6,30.27,West,277,0.0,1.0,28,0.00,,---,0.00,VWS V14.01,2013-01-20 04:13:00,
2013-01-19 20:18:00,45.0,13.1,30.27,West,277,0.0,1.0,27,0.00,,---,0.00,VWS V14.01,2013-01-20 04:18:00,
2013-01-19 20:24:00,44.8,13.7,30.27,West,274,0.0,1.0,28,0.00,,---,0.00,VWS V14.01,2013-01-20 04:24:00,
2013-01-19 20:29:00,44.1,13.1,30.27,West,274,0.0,1.0,28,0.00,,---,0.00,VWS V14.01,2013-01-20 04:29:00,
2013-01-19 20:34:00,43.9,12.9,30.27,SW,219,0.0,1.0,28,0.00,,---,0.00,VWS V14.01,2013-01-20 04:34:00,
2013-01-19 20:39:00,43.7,12.8,30.27,SSW,208,0.0,1.0,28,0.00,,---,0.00,VWS V14.01,2013-01-20 04:39:00,
2013-01-19 20:45:00,44.3,12.4,30.28,SSW,212,2.0,2.0,27,0.00,,---,0.00,VWS V14.01,2013-01-20 04:45:00,
2013-01-19 20:50:00,44.5,12.6,30.27,SSW,197,2.0,2.0,27,0.00,,---,0.00,VWS V14.01,2013-01-20 04:50:00,
2013-01-19 20:55:00,44.4,12.5,30.28,SSW,212,2.0,3.0,27,0.00,,---,0.00,VWS V14.01,2013-01-20 04:55:00,
2013-01-19 21:02:00,44.8,12.0,30.27,SSW,205,2.0,2.0,26,0.00,,---,0.00,VWS V14.01,2013-01-20 05:02:00,
2013-01-19 21:03:00,44.8,12.0,30.28,SSW,206,2.0,2.0,26,0.00,,---,0.00,VWS V14.01,2013-01-20 05:03:00,
2013-01-19 21:04:00,44.8,12.0,30.28,SSW,212,2.0,2.0,26,0.00,,---,0.00,VWS V14.01,2013-01-20 05:04:00,
2013-01-19 21:07:00,44.9,12.1,30.28,SSW,207,2.0,2.0,26,0.00,,---,0.00,VWS V14.01,2013-01-20 05:07:00,
2013-01-19 21:12:00,44.9,12.1,30.28,SSW,200,2.0,3.0,26,0.00,,---,0.00,VWS V14.01,2013-01-20 05:12:00,
2013-01-19 21:17:00,44.9,12.1,30.27,SSW,210,2.0,3.0,26,0.00,,---,0.00,VWS V14.01,2013-01-20 05:17:00,
2013-01-19 21:22:00,45.0,11.3,30.28,SSW,211,2.0,3.0,25,0.00,,---,0.00,VWS V14.01,2013-01-20 05:22:00,
2013-01-19 21:27:00,45.0,11.3,30.28,SW,217,0.0,3.0,25,0.00,,---,0.00,VWS V14.01,2013-01-20 05:27:00,
2013-01-19 21:32:00,44.8,11.1,30.28,SW,215,0.0,3.0,25,0.00,,---,0.00,VWS V14.01,2013-01-20 05:32:00,
2013-01-19 21:37:00,44.9,11.2,30.28,SW,215,0.0,3.0,25,0.00,,---,0.00,VWS V14.01,2013-01-20 05:37:00,
2013-01-19 21:42:00,44.7,11.1,30.28,SSW,192,2.0,3.0,25,0.00,,---,0.00,VWS V14.01,2013-01-20 05:42:00,
2013-01-19 21:47:00,44.6,11.9,30.28,South,191,2.0,3.0,26,0.00,,---,0.00,VWS V14.01,2013-01-20 05:47:00,
2013-01-19 21:52:00,44.4,10.8,30.28,SSW,200,1.0,3.0,25,0.00,,---,0.00,VWS V14.01,2013-01-20 05:52:00,
2013-01-19 21:57:00,44.8,12.0,30.28,SSW,194,0.0,3.0,26,0.00,,---,0.00,VWS V14.01,2013-01-20 05:57:00,
2013-01-19 22:02:00,43.5,11.8,30.28,South,191,2.0,2.0,27,0.00,,---,0.00,VWS V14.01,2013-01-20 06:02:00,
2013-01-19 22:07:00,43.1,11.4,30.29,SSW,201,3.0,3.0,27,0.00,,---,0.00,VWS V14.01,2013-01-20 06:07:00,
2013-01-19 22:12:00,42.5,12.5,30.29,South,178,3.0,3.0,29,0.00,,---,0.00,VWS V14.01,2013-01-20 06:12:00,
2013-01-19 22:17:00,41.8,11.9,30.29,South,173,3.0,3.0,29,0.00,,---,0.00,VWS V14.01,2013-01-20 06:17:00,
2013-01-19 22:22:00,41.9,11.2,30.29,SSW,195,3.0,4.0,28,0.00,,---,0.00,VWS V14.01,2013-01-20 06:22:00,
2013-01-19 22:27:00,42.5,11.7,30.29,South,186,2.0,4.0,28,0.00,,---,0.00,VWS V14.01,2013-01-20 06:27:00,
2013-01-19 22:32:00,43.5,10.9,30.29,SSW,200,1.0,4.0,26,0.00,,---,0.00,VWS V14.01,2013-01-20 06:32:00,
2013-01-19 22:37:00,43.4,11.7,30.29,South,171,2.0,4.0,27,0.00,,---,0.00,VWS V14.01,2013-01-20 06:37:00,
2013-01-19 22:42:00,42.5,11.7,30.29,South,186,2.0,4.0,28,0.00,,---,0.00,VWS V14.01,2013-01-20 06:42:00,
2013-01-19 22:47:00,42.3,11.5,30.29,South,181,2.0,4.0,28,0.00,,---,0.00,VWS V14.01,2013-01-20 06:47:00,
2013-01-19 22:53:00,41.6,11.7,30.30,South,180,3.0,4.0,29,0.00,,---,0.00,VWS V14.01,2013-01-20 06:53:00,
2013-01-19 22:58:00,41.1,12.8,30.29,South,187,0.0,4.0,31,0.00,,---,0.00,VWS V14.01,2013-01-20 06:58:00,
2013-01-19 23:03:00,39.8,12.4,30.30,South,187,0.0,0.0,32,0.00,,---,0.00,VWS V14.01,2013-01-20 07:03:00,
2013-01-19 23:08:00,38.7,12.8,30.30,South,187,0.0,0.0,34,0.00,,---,0.00,VWS V14.01,2013-01-20 07:08:00,
2013-01-19 23:13:00,37.8,12.6,30.30,South,187,0.0,0.0,35,0.00,,---,0.00,VWS V14.01,2013-01-20 07:13:00,
2013-01-19 23:18:00,37.3,12.8,30.29,South,187,1.0,2.0,36,0.00,,---,0.00,VWS V14.01,2013-01-20 07:18:00,
2013-01-19 23:23:00,36.9,13.1,30.30,SSW,198,1.0,2.0,37,0.00,,---,0.00,VWS V14.01,2013-01-20 07:23:00,
2013-01-19 23:28:00,36.7,12.9,30.29,SSW,198,1.0,2.0,37,0.00,,---,0.00,VWS V14.01,2013-01-20 07:28:00,
2013-01-19 23:33:00,37.2,12.1,30.29,SSW,198,3.0,3.0,35,0.00,,---,0.00,VWS V14.01,2013-01-20 07:33:00,
2013-01-19 23:38:00,38.3,12.4,30.29,South,188,1.0,3.0,34,0.00,,---,0.00,VWS V14.01,2013-01-20 07:38:00,
2013-01-19 23:43:00,38.6,12.0,30.29,SE,141,0.0,3.0,33,0.00,,---,0.00,VWS V14.01,2013-01-20 07:43:00,
2013-01-19 23:48:00,38.5,12.6,30.29,SE,141,1.0,3.0,34,0.00,,---,0.00,VWS V14.01,2013-01-20 07:48:00,
2013-01-19 23:53:00,37.8,12.6,30.29,SE,131,1.0,3.0,35,0.00,,---,0.00,VWS V14.01,2013-01-20 07:53:00,
2013-01-19 23:58:00,37.8,12.6,30.29,SE,134,1.0,3.0,35,0.00,,---,0.00,VWS V14.01,2013-01-20 07:58:00,